Time,TemperatureF,DewpointF,PressureIn,WindDirection,WindDirectionDegrees,WindSpeedMPH,WindSpeedGustMPH,Humidity,HourlyPrecipIn,Conditions,Clouds,dailyrainin,SoftwareType,DateUTC
2017-07-26 00:05:00,105.7,61.0,29.46,West,260,3.0,9.0,23,0.00,,,0.00,weatherlink.com 1.10,2017-07-25 21:05:00,
2017-07-26 00:19:00,104.9,63.0,29.46,NW,315,1.0,15.0,25,0.00,,,0.00,weatherlink.com 1.10,2017-07-25 21:19:00,
2017-07-26 00:34:00,103.9,63.0,29.46,West,263,5.0,8.0,26,0.00,,,0.00,weatherlink.com 1.10,2017-07-25 21:34:00,
2017-07-26 00:49:00,103.7,64.0,29.45,West,262,6.0,13.0,27,0.00,,,0.00,weatherlink.com 1.10,2017-07-25 21:49:00,
2017-07-26 01:05:00,103.6,63.0,29.45,West,273,2.0,12.0,26,0.00,,,0.00,weatherlink.com 1.10,2017-07-25 22:05:00,
2017-07-26 01:20:00,103.1,64.0,29.45,North,359,2.0,10.0,28,0.00,,,0.00,weatherlink.com 1.10,2017-07-25 22:20:00,
2017-07-26 01:35:00,103.3,63.0,29.45,WNW,301,8.0,11.0,27,0.00,,,0.00,weatherlink.com 1.10,2017-07-25 22:35:00,
2017-07-26 01:50:00,103.4,62.0,29.45,NW,319,3.0,17.0,26,0.00,,,0.00,weatherlink.com 1.10,2017-07-25 22:50:00,
2017-07-26 02:05:00,103.1,64.0,29.45,WNW,284,2.0,8.0,28,0.00,,,0.00,weatherlink.com 1.10,2017-07-25 23:05:00,
2017-07-26 02:20:00,102.9,64.0,29.45,NW,307,3.0,13.0,28,0.00,,,0.00,weatherlink.com 1.10,2017-07-25 23:20:00,
2017-07-26 02:35:00,102.6,65.0,29.45,West,261,4.0,7.0,29,0.00,,,0.00,weatherlink.com 1.10,2017-07-25 23:35:00,
2017-07-26 02:50:00,102.4,65.0,29.46,NW,304,5.0,9.0,29,0.00,,,0.00,weatherlink.com 1.10,2017-07-25 23:50:00,
2017-07-26 03:05:00,102.1,65.0,29.46,WNW,302,3.0,7.0,30,0.00,,,0.00,weatherlink.com 1.10,2017-07-26 00:05:00,
2017-07-26 03:20:00,101.6,65.0,29.45,West,278,1.0,7.0,30,0.00,,,0.00,weatherlink.com 1.10,2017-07-26 00:20:00,
2017-07-26 03:35:00,101.3,65.0,29.46,WNW,291,5.0,12.0,30,0.00,,,0.00,weatherlink.com 1.10,2017-07-26 00:35:00,
2017-07-26 03:50:00,100.9,64.0,29.46,NW,320,4.0,8.0,30,0.00,,,0.00,weatherlink.com 1.10,2017-07-26 00:50:00,
2017-07-26 04:05:00,100.8,63.0,29.47,SW,226,4.0,9.0,29,0.00,,,0.00,weatherlink.com 1.10,2017-07-26 01:05:00,
2017-07-26 04:20:00,100.3,64.0,29.47,NW,304,4.0,9.0,30,0.00,,,0.00,weatherlink.com 1.10,2017-07-26 01:20:00,
2017-07-26 04:35:00,100.1,64.0,29.47,WNW,291,5.0,11.0,30,0.00,,,0.00,weatherlink.com 1.10,2017-07-26 01:35:00,
2017-07-26 04:50:00,100.0,63.0,29.48,North,359,3.0,10.0,30,0.00,,,0.00,weatherlink.com 1.10,2017-07-26 01:50:00,
2017-07-26 05:05:00,99.4,64.0,29.48,WNW,290,4.0,9.0,31,0.00,,,0.00,weatherlink.com 1.10,2017-07-26 02:05:00,
2017-07-26 05:20:00,99.2,64.0,29.48,WNW,293,4.0,9.0,31,0.00,,,0.00,weatherlink.com 1.10,2017-07-26 02:20:00,
2017-07-26 05:35:00,99.2,64.0,29.49,West,266,3.0,9.0,31,0.00,,,0.00,weatherlink.com 1.10,2017-07-26 02:35:00,
2017-07-26 05:50:00,99.3,63.0,29.49,North,359,3.0,10.0,30,0.00,,,0.00,weatherlink.com 1.10,2017-07-26 02:50:00,
2017-07-26 06:05:00,99.2,64.0,29.49,NW,318,4.0,9.0,31,0.00,,,0.00,weatherlink.com 1.10,2017-07-26 03:05:00,
2017-07-26 06:20:00,99.8,64.0,29.49,NW,318,4.0,10.0,31,0.00,,,0.00,weatherlink.com 1.10,2017-07-26 03:20:00,
2017-07-26 06:35:00,100.0,63.0,29.49,NW,318,5.0,9.0,30,0.00,,,0.00,weatherlink.com 1.10,2017-07-26 03:35:00,
2017-07-26 06:50:00,100.2,62.0,29.49,NW,320,10.0,14.0,28,0.00,,,0.00,weatherlink.com 1.10,2017-07-26 03:50:00,
2017-07-26 07:05:00,100.9,62.0,29.48,WNW,298,5.0,9.0,28,0.00,,,0.00,weatherlink.com 1.10,2017-07-26 04:05:00,
2017-07-26 07:20:00,102.3,61.0,29.49,NW,320,6.0,9.0,26,0.00,,,0.00,weatherlink.com 1.10,2017-07-26 04:20:00,
2017-07-26 07:35:00,101.7,66.0,29.51,WNW,298,4.0,8.0,31,0.00,,,0.00,weatherlink.com 1.10,2017-07-26 04:35:00,
2017-07-26 07:50:00,101.7,61.0,29.51,West,279,3.0,6.0,26,0.00,,,0.00,weatherlink.com 1.10,2017-07-26 04:50:00,
2017-07-26 08:05:00,102.8,62.0,29.51,NW,324,3.0,8.0,26,0.00,,,0.00,weatherlink.com 1.10,2017-07-26 05:05:00,
2017-07-26 08:35:00,105.1,62.0,29.51,NNW,347,5.0,9.0,24,0.00,,,0.00,weatherlink.com 1.10,2017-07-26 05:35:00,
2017-07-26 08:51:00,106.4,60.0,29.51,NW,320,5.0,10.0,22,0.00,,,0.00,weatherlink.com 1.10,2017-07-26 05:51:00,
2017-07-26 09:05:00,107.4,61.0,29.51,NNW,338,7.0,11.0,22,0.00,,,0.00,weatherlink.com 1.10,2017-07-26 06:05:00,
2017-07-26 09:20:00,108.4,63.0,29.51,NW,310,5.0,11.0,23,0.00,,,0.00,weatherlink.com 1.10,2017-07-26 06:20:00,
2017-07-26 09:35:00,109.8,61.0,29.51,NW,323,7.0,11.0,20,0.00,,,0.00,weatherlink.com 1.10,2017-07-26 06:35:00,
2017-07-26 09:50:00,111.1,60.0,29.50,NW,310,8.0,14.0,19,0.00,,,0.00,weatherlink.com 1.10,2017-07-26 06:50:00,
2017-07-26 10:05:00,111.5,61.0,29.50,WNW,297,8.0,12.0,19,0.00,,,0.00,weatherlink.com 1.10,2017-07-26 07:05:00,
2017-07-26 10:20:00,112.6,58.0,29.50,WNW,303,10.0,12.0,17,0.00,,,0.00,weatherlink.com 1.10,2017-07-26 07:20:00,
2017-07-26 10:36:00,113.0,60.0,29.50,North,359,8.0,12.0,18,0.00,,,0.00,weatherlink.com 1.10,2017-07-26 07:36:00,
2017-07-26 10:51:00,113.6,59.0,29.50,North,359,5.0,12.0,17,0.00,,,0.00,weatherlink.com 1.10,2017-07-26 07:51:00,
2017-07-26 11:06:00,114.0,59.0,29.50,WNW,293,7.0,12.0,17,0.00,,,0.00,weatherlink.com 1.10,2017-07-26 08:06:00,
2017-07-26 11:21:00,114.5,60.0,29.50,WNW,285,5.0,11.0,17,0.00,,,0.00,weatherlink.com 1.10,2017-07-26 08:21:00,
2017-07-26 11:36:00,114.6,63.0,29.50,NW,314,5.0,10.0,19,0.00,,,0.00,weatherlink.com 1.10,2017-07-26 08:36:00,
2017-07-26 11:51:00,115.1,59.0,29.49,North,359,8.0,11.0,16,0.00,,,0.00,weatherlink.com 1.10,2017-07-26 08:51:00,